Time;durP1;ratioP1;P1;durP2;ratioP2;P2;SDS_P1;SDS_P2;PMS_P1;PMS_P2;Temp;Humidity;BMP_temperature;BMP_pressure;BME280_temperature;BME280_humidity;BME280_pressure;Samples;Min_cycle;Max_cycle;Signal;HPM_P1;HPM_P2
2022/05/21 00:02:12;;;;;;;35.35;24.20;;;;;;;-150.07;100.00;67148.00;5012474;28;20033;-78
2022/05/21 00:04:41;;;;;;;28.50;21.60;;;;;;;-150.07;100.00;67148.00;5013105;28;20482;-78
2022/05/21 00:07:10;;;;;;;29.00;20.67;;;;;;;-150.07;100.00;67148.00;5011191;28;20087;-78
2022/05/21 00:09:38;;;;;;;26.90;21.17;;;;;;;-150.07;100.00;67148.00;5013264;28;20046;-80
2022/05/21 00:12:06;;;;;;;32.55;21.13;;;;;;;-150.07;100.00;67148.00;5012648;28;20037;-77
2022/05/21 00:14:35;;;;;;;32.05;19.00;;;;;;;-150.07;100.00;67148.00;5012876;28;20099;-78
2022/05/21 00:17:03;;;;;;;21.13;16.23;;;;;;;-150.07;100.00;67148.00;5009211;28;20042;-77
2022/05/21 00:19:30;;;;;;;22.00;17.15;;;;;;;-150.07;100.00;67148.00;5011891;28;20036;-78
2022/05/21 00:21:57;;;;;;;24.13;17.05;;;;;;;-150.07;100.00;67148.00;5012522;28;20041;-78
2022/05/21 00:24:24;;;;;;;20.63;14.13;;;;;;;-150.07;100.00;67148.00;5003200;28;20014;-77
2022/05/21 00:26:51;;;;;;;20.17;14.45;;;;;;;-150.07;100.00;67148.00;5010347;28;20037;-77
2022/05/21 00:29:20;;;;;;;18.75;14.63;;;;;;;-150.07;100.00;67148.00;5013197;28;20026;-78
2022/05/21 00:31:49;;;;;;;27.60;15.00;;;;;;;-150.07;100.00;67148.00;5010593;28;20604;-77
2022/05/21 00:34:16;;;;;;;14.93;11.23;;;;;;;-150.07;100.00;67148.00;5004910;28;20084;-77
2022/05/21 00:36:43;;;;;;;15.27;12.88;;;;;;;-150.07;100.00;67148.00;5011554;28;20026;-76
2022/05/21 00:39:10;;;;;;;18.17;12.60;;;;;;;-150.07;100.00;67148.00;5012890;28;20049;-77
2022/05/21 00:41:38;;;;;;;16.08;13.50;;;;;;;-150.07;100.00;67148.00;5012463;28;20026;-77
2022/05/21 00:44:07;;;;;;;20.95;15.05;;;;;;;-150.07;100.00;67148.00;5012531;28;20117;-77
2022/05/21 00:46:38;;;;;;;19.65;14.48;;;;;;;-150.07;100.00;67148.00;5011391;28;20030;-76
2022/05/21 00:49:14;;;;;;;17.42;12.90;;;;;;;-150.07;100.00;67148.00;5011149;28;20479;-78
2022/05/21 00:52:04;;;;;;;18.33;15.10;;;;;;;-150.07;100.00;67148.00;5009201;28;20426;-77
2022/05/21 00:54:45;;;;;;;17.63;12.80;;;;;;;-150.07;100.00;67148.00;4993009;28;20475;-77
2022/05/21 00:57:35;;;;;;;18.92;12.27;;;;;;;-150.07;100.00;67148.00;4975419;28;20486;-78
2022/05/21 01:00:16;;;;;;;17.60;14.07;;;;;;;-150.07;100.00;67148.00;4996003;28;20120;-76
2022/05/21 01:02:56;;;;;;;15.95;14.02;;;;;;;-150.07;100.00;67148.00;4993223;28;20426;-77
2022/05/21 01:05:26;;;;;;;20.13;17.02;;;;;;;-150.07;100.00;67148.00;4992833;28;20015;-76
2022/05/21 01:07:58;;;;;;;24.58;16.92;;;;;;;-150.07;100.00;67148.00;4992840;28;20030;-77
2022/05/21 01:10:29;;;;;;;20.05;17.92;;;;;;;-150.07;100.00;67148.00;4996925;28;20033;-77
2022/05/21 01:12:57;;;;;;;17.55;15.73;;;;;;;-150.07;100.00;67148.00;4991517;28;20061;-77
2022/05/21 01:15:31;;;;;;;24.30;16.13;;;;;;;-150.07;100.00;67148.00;4992936;28;20109;-77
2022/05/21 01:17:58;;;;;;;15.75;14.18;;;;;;;-150.07;100.00;67148.00;4992950;28;20027;-77
2022/05/21 01:20:41;;;;;;;24.80;17.05;;;;;;;-150.07;100.00;67148.00;4992637;28;20415;-77
2022/05/21 01:23:08;;;;;;;23.38;15.65;;;;;;;-150.07;100.00;67148.00;5001320;28;20025;-77
2022/05/21 01:25:38;;;;;;;24.15;16.77;;;;;;;-150.07;100.00;67148.00;5010971;28;20382;-77
2022/05/21 01:28:09;;;;;;;19.52;14.55;;;;;;;-150.07;100.00;67148.00;5012541;28;20052;-77
2022/05/21 01:30:42;;;;;;;22.33;15.20;;;;;;;-150.07;100.00;67148.00;5012544;28;20029;-78
2022/05/21 01:33:13;;;;;;;15.88;13.15;;;;;;;-150.07;100.00;67148.00;5012145;28;20390;-77
2022/05/21 01:35:42;;;;;;;19.67;14.25;;;;;;;-150.07;100.00;67148.00;5011695;28;20052;-77
2022/05/21 01:38:11;;;;;;;15.90;13.50;;;;;;;-150.07;100.00;67148.00;4992635;28;20042;-77
2022/05/21 01:40:39;;;;;;;19.40;13.88;;;;;;;-150.07;100.00;67148.00;4992653;28;20427;-78
2022/05/21 01:45:52;;;;;;;16.42;13.30;;;;;;;-150.07;100.00;67148.00;4992813;28;20423;-77
2022/05/21 01:48:21;;;;;;;19.88;13.93;;;;;;;-150.07;100.00;67148.00;4992306;28;20026;-77
2022/05/21 01:50:50;;;;;;;18.33;11.63;;;;;;;-150.07;100.00;67148.00;5001035;28;20079;-76
2022/05/21 01:53:19;;;;;;;15.07;11.10;;;;;;;-150.07;100.00;67148.00;5011806;28;20037;-77
2022/05/21 01:55:47;;;;;;;17.35;12.55;;;;;;;-150.07;100.00;67148.00;5011938;28;20030;-77
2022/05/21 01:58:15;;;;;;;14.38;11.73;;;;;;;-150.07;100.00;67148.00;5011570;28;20029;-77
2022/05/21 02:00:43;;;;;;;17.85;13.05;;;;;;;-150.07;100.00;67148.00;5009855;28;20041;-78
2022/05/21 02:03:12;;;;;;;15.10;12.30;;;;;;;-150.07;100.00;67148.00;5011424;28;20022;-77
2022/05/21 02:05:40;;;;;;;18.27;12.57;;;;;;;-150.07;100.00;67148.00;5011679;28;20029;-77
2022/05/21 02:08:07;;;;;;;20.25;13.18;;;;;;;-150.07;100.00;67148.00;5011501;28;20026;-76
2022/05/21 02:10:35;;;;;;;18.38;12.70;;;;;;;-150.07;100.00;67148.00;5010465;28;20021;-77
2022/05/21 02:13:03;;;;;;;22.60;13.50;;;;;;;-150.07;100.00;67148.00;5011356;28;20021;-78
2022/05/21 02:15:31;;;;;;;21.70;14.18;;;;;;;-150.07;100.00;67148.00;5011607;28;20117;-77
2022/05/21 02:17:59;;;;;;;14.80;13.25;;;;;;;-150.07;100.00;67148.00;5011580;28;20030;-78
2022/05/21 02:20:26;;;;;;;16.90;12.82;;;;;;;-150.07;100.00;67148.00;5011358;28;20057;-77
2022/05/21 02:22:53;;;;;;;21.33;13.45;;;;;;;-150.07;100.00;67148.00;5011327;28;20022;-77
2022/05/21 02:25:20;;;;;;;17.65;13.90;;;;;;;-150.07;100.00;67148.00;5010314;28;20014;-77
2022/05/21 02:27:47;;;;;;;16.13;11.80;;;;;;;-150.07;100.00;67148.00;5020023;28;20026;-77
2022/05/21 02:30:14;;;;;;;17.27;12.73;;;;;;;-150.07;100.00;67148.00;4991464;28;20077;-76
2022/05/21 02:32:41;;;;;;;20.38;12.55;;;;;;;-150.07;100.00;67148.00;5021736;28;20033;-77
2022/05/21 02:35:09;;;;;;;16.60;12.13;;;;;;;-150.07;100.00;67148.00;5015930;28;20075;-77
2022/05/21 02:40:21;;;;;;;15.15;10.30;;;;;;;-150.07;100.00;67148.00;5010255;28;20053;-75
2022/05/21 02:42:48;;;;;;;16.10;9.02;;;;;;;-150.07;100.00;67148.00;5010815;28;20481;-77
2022/05/21 02:45:22;;;;;;;14.90;9.95;;;;;;;-150.07;100.00;67148.00;5011149;28;20038;-78
2022/05/21 02:47:50;;;;;;;8.63;7.32;;;;;;;-150.07;100.00;67148.00;5010217;28;20547;-77
2022/05/21 02:50:20;;;;;;;10.93;9.85;;;;;;;-150.07;100.00;67148.00;5010770;28;20054;-78
2022/05/21 02:52:47;;;;;;;8.68;7.78;;;;;;;-150.07;100.00;67148.00;5010900;28;20037;-78
2022/05/21 02:55:16;;;;;;;13.68;8.23;;;;;;;-150.07;100.00;67148.00;5010045;28;20034;-77
2022/05/21 02:57:43;;;;;;;11.10;8.52;;;;;;;-150.07;100.00;67148.00;5010718;28;20434;-77
2022/05/21 03:00:22;;;;;;;10.88;8.25;;;;;;;-150.07;100.00;67148.00;5009324;28;20034;-78
2022/05/21 03:02:49;;;;;;;11.30;7.82;;;;;;;-150.07;100.00;67148.00;5010800;28;20037;-77
2022/05/21 03:05:17;;;;;;;14.32;8.93;;;;;;;-150.07;100.00;67148.00;5008193;28;20022;-77
2022/05/21 03:07:47;;;;;;;8.90;6.57;;;;;;;-150.07;100.00;67148.00;5016249;28;20034;-76
2022/05/21 03:10:22;;;;;;;12.13;7.45;;;;;;;-150.07;100.00;67148.00;5009621;28;20033;-78
2022/05/21 03:13:00;;;;;;;9.60;6.57;;;;;;;-150.07;100.00;67148.00;5013964;28;20120;-77
2022/05/21 03:15:38;;;;;;;11.32;8.02;;;;;;;-150.07;100.00;67148.00;5012553;28;20026;-77
2022/05/21 03:18:10;;;;;;;17.23;9.70;;;;;;;-150.07;100.00;67148.00;5014571;28;20132;-77
2022/05/21 03:20:38;;;;;;;9.68;7.63;;;;;;;-150.07;100.00;67148.00;5014293;28;20025;-76
2022/05/21 03:23:05;;;;;;;11.82;9.35;;;;;;;-150.07;100.00;67148.00;5014135;28;20033;-79
2022/05/21 03:25:32;;;;;;;10.60;8.88;;;;;;;-150.07;100.00;67148.00;5013308;28;20100;-78
2022/05/21 03:28:00;;;;;;;9.10;8.18;;;;;;;-150.07;100.00;67148.00;5014419;28;20030;-77
2022/05/21 03:30:29;;;;;;;10.57;8.73;;;;;;;-150.07;100.00;67148.00;5014616;28;20088;-77
2022/05/21 03:32:57;;;;;;;8.50;7.10;;;;;;;-150.07;100.00;67148.00;5014760;28;20112;-76
2022/05/21 03:35:24;;;;;;;9.82;8.60;;;;;;;-150.07;100.00;67148.00;5013569;28;20041;-77
2022/05/21 03:37:52;;;;;;;13.00;10.13;;;;;;;-150.07;100.00;67148.00;5013958;28;20386;-77
2022/05/21 03:40:26;;;;;;;10.88;9.25;;;;;;;-150.07;100.00;67148.00;5013852;28;20064;-75
2022/05/21 03:42:54;;;;;;;12.63;9.48;;;;;;;-150.07;100.00;67148.00;5012674;28;20048;-77
2022/05/21 03:45:22;;;;;;;14.55;11.52;;;;;;;-150.07;100.00;67148.00;5013406;28;20088;-77
2022/05/21 03:47:50;;;;;;;10.90;9.77;;;;;;;-150.07;100.00;67148.00;5016616;28;20049;-77
2022/05/21 03:50:21;;;;;;;16.17;10.68;;;;;;;-150.07;100.00;67148.00;5028246;28;20033;-77
2022/05/21 03:52:48;;;;;;;16.10;9.48;;;;;;;-150.07;100.00;67148.00;5023583;28;20062;-76
2022/05/21 03:55:15;;;;;;;10.55;9.55;;;;;;;-150.07;100.00;67148.00;5012333;28;20059;-76
2022/05/21 03:57:44;;;;;;;12.15;9.50;;;;;;;-150.07;100.00;67148.00;5013585;28;20505;-76
2022/05/21 04:00:14;;;;;;;12.45;11.07;;;;;;;-150.07;100.00;67148.00;5013428;28;20034;-77
2022/05/21 04:02:41;;;;;;;12.38;8.98;;;;;;;-150.07;100.00;67148.00;5012734;28;20037;-77
2022/05/21 04:05:10;;;;;;;14.30;9.65;;;;;;;-150.07;100.00;67148.00;5012197;28;20017;-77
2022/05/21 04:07:39;;;;;;;22.30;9.65;;;;;;;-150.07;100.00;67148.00;5013293;28;20124;-77
2022/05/21 04:10:08;;;;;;;8.35;7.65;;;;;;;-150.07;100.00;67148.00;5013418;28;20026;-77
2022/05/21 04:12:35;;;;;;;10.03;9.00;;;;;;;-150.07;100.00;67148.00;5013354;28;20037;-77
2022/05/21 04:15:02;;;;;;;12.98;9.85;;;;;;;-150.07;100.00;67148.00;5013424;28;20101;-77
2022/05/21 04:17:29;;;;;;;11.75;9.02;;;;;;;-150.07;100.00;67148.00;5013227;28;20029;-77
2022/05/21 04:19:56;;;;;;;10.52;8.65;;;;;;;-150.07;100.00;67148.00;5009655;28;20042;-77
2022/05/21 04:22:23;;;;;;;10.40;9.27;;;;;;;-150.07;100.00;67148.00;5011124;28;20407;-78
2022/05/21 04:24:50;;;;;;;10.23;9.23;;;;;;;-150.07;100.00;67148.00;4993563;28;20044;-78
2022/05/21 04:27:16;;;;;;;9.18;7.53;;;;;;;-150.07;100.00;67148.00;5019796;28;20091;-76
2022/05/21 04:29:43;;;;;;;13.27;8.98;;;;;;;-150.07;100.00;67148.00;5011731;28;20030;-77
2022/05/21 04:32:10;;;;;;;11.30;9.30;;;;;;;-150.07;100.00;67148.00;5012193;28;20056;-78
2022/05/21 04:34:37;;;;;;;16.17;7.85;;;;;;;-150.07;100.00;67148.00;5015806;28;20409;-76
2022/05/21 04:37:04;;;;;;;9.35;8.43;;;;;;;-150.07;100.00;67148.00;5011703;28;20030;-77
2022/05/21 04:39:31;;;;;;;9.55;7.97;;;;;;;-150.07;100.00;67148.00;5011914;28;20507;-76
2022/05/21 04:42:00;;;;;;;10.25;8.77;;;;;;;-150.07;100.00;67148.00;5019093;28;20414;-77
2022/05/21 04:44:31;;;;;;;12.55;9.05;;;;;;;-150.07;100.00;67148.00;5011562;28;20037;-76
2022/05/21 04:46:59;;;;;;;9.63;8.65;;;;;;;-150.07;100.00;67148.00;5010491;28;20021;-78
2022/05/21 04:49:26;;;;;;;10.68;9.25;;;;;;;-150.07;100.00;67148.00;5012875;28;20037;-77
2022/05/21 04:51:53;;;;;;;11.70;7.43;;;;;;;-150.07;100.00;67148.00;5011112;28;20419;-77
2022/05/21 04:54:20;;;;;;;11.15;8.77;;;;;;;-150.07;100.00;67148.00;5011346;28;20050;-77
2022/05/21 04:56:47;;;;;;;12.60;7.80;;;;;;;-150.07;100.00;67148.00;5017506;28;20386;-77
2022/05/21 04:59:14;;;;;;;8.75;7.18;;;;;;;-150.07;100.00;67148.00;5008900;28;21436;-76
2022/05/21 05:01:42;;;;;;;10.82;8.40;;;;;;;-150.07;100.00;67148.00;5017376;28;20040;-78
2022/05/21 05:04:10;;;;;;;9.98;8.90;;;;;;;-150.07;100.00;67148.00;5008570;28;20022;-78
2022/05/21 05:06:38;;;;;;;8.05;7.25;;;;;;;-150.07;100.00;67148.00;5011977;28;20040;-76
2022/05/21 05:09:06;;;;;;;10.32;9.10;;;;;;;-150.07;100.00;67148.00;5012092;28;20025;-78
2022/05/21 05:11:33;;;;;;;10.52;9.40;;;;;;;-150.07;100.00;67148.00;5011625;28;20022;-77
2022/05/21 05:14:00;;;;;;;13.20;9.63;;;;;;;-150.07;100.00;67148.00;5004059;28;20045;-77
2022/05/21 05:16:27;;;;;;;9.98;8.15;;;;;;;-150.07;100.00;67148.00;5012512;28;20053;-77
2022/05/21 05:18:54;;;;;;;9.82;8.18;;;;;;;-150.07;100.00;67148.00;5010217;28;20054;-77
2022/05/21 05:21:22;;;;;;;13.40;9.32;;;;;;;-150.07;100.00;67148.00;5011492;28;20121;-77
2022/05/21 05:23:49;;;;;;;16.13;10.23;;;;;;;-150.07;100.00;67148.00;5000860;28;20028;-77
2022/05/21 05:26:16;;;;;;;11.15;7.70;;;;;;;-150.07;100.00;67148.00;5011267;28;20475;-77
2022/05/21 05:28:43;;;;;;;10.82;8.45;;;;;;;-150.07;100.00;67148.00;5011476;28;20018;-79
2022/05/21 05:31:10;;;;;;;8.35;7.40;;;;;;;-150.07;100.00;67148.00;5009812;28;20026;-77
2022/05/21 05:33:39;;;;;;;9.40;8.40;;;;;;;-150.07;100.00;67148.00;5005484;28;20030;-78
2022/05/21 05:36:07;;;;;;;9.23;8.30;;;;;;;-150.07;100.00;67148.00;5002761;28;20037;-78
2022/05/21 05:38:33;;;;;;;11.52;8.38;;;;;;;-150.07;100.00;67148.00;5010829;28;20046;-77
2022/05/21 05:41:01;;;;;;;15.00;9.43;;;;;;;-150.07;100.00;67148.00;5007846;28;20049;-77
2022/05/21 05:43:28;;;;;;;12.65;10.88;;;;;;;-150.07;100.00;67148.00;5011322;28;20029;-77
2022/05/21 05:45:58;;;;;;;11.30;10.07;;;;;;;-150.07;100.00;67148.00;5011111;28;20443;-77
2022/05/21 05:48:26;;;;;;;10.30;9.40;;;;;;;-150.07;100.00;67148.00;5011965;28;20065;-77
2022/05/21 05:50:54;;;;;;;11.02;9.23;;;;;;;-150.07;100.00;67148.00;5009118;28;20041;-79
2022/05/21 05:53:21;;;;;;;13.00;10.10;;;;;;;-150.07;100.00;67148.00;5009335;28;20076;-77
2022/05/21 05:55:48;;;;;;;15.60;11.00;;;;;;;-150.07;100.00;67148.00;5005767;28;20057;-77
2022/05/21 06:01:01;;;;;;;11.32;9.05;;;;;;;-150.07;100.00;67148.00;5011526;28;20099;-77
2022/05/21 06:03:28;;;;;;;12.82;9.32;;;;;;;-150.07;100.00;67148.00;5010741;28;20443;-78
2022/05/21 06:05:55;;;;;;;10.75;9.57;;;;;;;-150.07;100.00;67148.00;5010893;28;20057;-77
2022/05/21 06:08:22;;;;;;;11.90;10.63;;;;;;;-150.07;100.00;67148.00;5011260;28;20033;-75
2022/05/21 06:10:49;;;;;;;11.32;10.23;;;;;;;-150.07;100.00;67148.00;5013215;28;20092;-77
2022/05/21 06:13:16;;;;;;;9.20;8.27;;;;;;;-150.07;100.00;67148.00;5012627;28;20471;-77
2022/05/21 06:15:43;;;;;;;13.57;9.77;;;;;;;-150.07;100.00;67148.00;5024402;28;20030;-77
2022/05/21 06:18:17;;;;;;;9.60;8.70;;;;;;;-150.07;100.00;67148.00;5031983;28;20077;-77
2022/05/21 06:20:45;;;;;;;11.45;9.93;;;;;;;-150.07;100.00;67148.00;5028490;28;20512;-78
2022/05/21 06:23:13;;;;;;;11.35;10.18;;;;;;;-150.07;100.00;67148.00;5014061;28;20479;-77
2022/05/21 06:25:40;;;;;;;10.27;9.35;;;;;;;-150.07;100.00;67148.00;4998460;28;20038;-82
2022/05/21 06:28:07;;;;;;;11.00;8.73;;;;;;;-150.07;100.00;67148.00;5023921;28;20025;-77
2022/05/21 06:30:36;;;;;;;11.02;8.27;;;;;;;-150.07;100.00;67148.00;5048321;28;20049;-77
2022/05/21 06:33:28;;;;;;;12.25;10.98;;;;;;;-150.07;100.00;67148.00;5016080;28;20010;-82
2022/05/21 06:36:06;;;;;;;14.50;9.40;;;;;;;-150.07;100.00;67148.00;4991785;28;20137;-85
2022/05/21 06:38:35;;;;;;;17.00;9.60;;;;;;;-150.07;100.00;67148.00;5013503;28;20197;-88
2022/05/21 06:41:03;;;;;;;14.07;11.02;;;;;;;-150.07;100.00;67148.00;5014931;28;20042;-89
2022/05/21 06:43:30;;;;;;;13.15;10.98;;;;;;;-150.07;100.00;67148.00;5015429;28;20042;-85
2022/05/21 06:45:57;;;;;;;15.52;10.90;;;;;;;-150.07;100.00;67148.00;5015305;28;20029;-81
2022/05/21 06:48:24;;;;;;;11.75;10.55;;;;;;;-150.07;100.00;67148.00;5015051;28;20104;-89
2022/05/21 06:50:51;;;;;;;14.93;9.85;;;;;;;-150.07;100.00;67148.00;5014061;28;20038;-86
2022/05/21 06:53:18;;;;;;;10.25;9.25;;;;;;;-150.07;100.00;67148.00;5016139;28;20022;-87
2022/05/21 06:55:45;;;;;;;11.75;9.98;;;;;;;-150.07;100.00;67148.00;5016630;28;20026;-90
2022/05/21 06:58:12;;;;;;;12.18;10.35;;;;;;;-150.07;100.00;67148.00;5015559;28;20030;-87
2022/05/21 07:00:39;;;;;;;11.75;9.60;;;;;;;-150.07;100.00;67148.00;5018323;28;20034;-90
2022/05/21 07:03:07;;;;;;;13.93;11.65;;;;;;;-150.07;100.00;67148.00;5022261;28;20113;-85
2022/05/21 07:08:25;;;;;;;11.73;9.77;;;;;;;-150.07;100.00;67148.00;5015180;28;20053;-85
2022/05/21 07:10:52;;;;;;;11.35;10.27;;;;;;;-150.07;100.00;67148.00;5000712;28;20332;-83
2022/05/21 07:13:24;;;;;;;18.90;12.18;;;;;;;-150.07;100.00;67148.00;5013048;28;20029;-86
2022/05/21 07:15:54;;;;;;;12.80;11.50;;;;;;;-150.07;100.00;67148.00;4997203;28;20120;-86
2022/05/21 07:18:22;;;;;;;12.82;10.52;;;;;;;-150.07;100.00;67148.00;5010423;28;20028;-86
2022/05/21 07:20:49;;;;;;;11.45;10.20;;;;;;;-150.07;100.00;67148.00;5013685;28;20037;-89
2022/05/21 07:23:17;;;;;;;13.65;9.32;;;;;;;-150.07;100.00;67148.00;5013916;28;20122;-88
2022/05/21 07:25:44;;;;;;;13.52;9.70;;;;;;;-150.07;100.00;67148.00;5015732;28;20026;-89
2022/05/21 07:28:12;;;;;;;11.25;10.25;;;;;;;-150.07;100.00;67148.00;4999095;28;20038;-87
2022/05/21 07:30:39;;;;;;;12.60;9.70;;;;;;;-150.07;100.00;67148.00;5012751;28;20030;-87
2022/05/21 07:33:12;;;;;;;17.70;10.75;;;;;;;-150.07;100.00;67148.00;5014206;28;20068;-86
2022/05/21 07:35:40;;;;;;;10.15;9.15;;;;;;;-150.07;100.00;67148.00;5013482;28;20022;-85
2022/05/21 07:38:08;;;;;;;11.25;10.13;;;;;;;-150.07;100.00;67148.00;5011173;28;20081;-87
2022/05/21 07:40:37;;;;;;;13.45;10.68;;;;;;;-150.07;100.00;67148.00;5012663;28;20022;-87
2022/05/21 07:43:16;;;;;;;12.57;11.35;;;;;;;-150.07;100.00;67148.00;5014199;28;20057;-86
2022/05/21 07:45:45;;;;;;;14.68;9.30;;;;;;;-150.07;100.00;67148.00;5013414;28;20495;-87
2022/05/21 07:48:14;;;;;;;16.63;10.98;;;;;;;-150.07;100.00;67148.00;5011597;28;20138;-88
2022/05/21 07:50:44;;;;;;;16.92;8.77;;;;;;;-150.07;100.00;67148.00;5014216;28;20041;-89
2022/05/21 07:53:13;;;;;;;14.13;12.82;;;;;;;-150.07;100.00;67148.00;5013995;28;20026;-86
2022/05/21 07:55:43;;;;;;;11.32;10.20;;;;;;;-150.07;100.00;67148.00;5014304;28;20133;-88
2022/05/21 07:58:11;;;;;;;12.43;11.15;;;;;;;-150.07;100.00;67148.00;5011870;28;20029;-86
2022/05/21 08:00:38;;;;;;;14.00;10.60;;;;;;;-150.07;100.00;67148.00;5017203;28;20041;-87
2022/05/21 08:03:08;;;;;;;13.30;10.35;;;;;;;-150.07;100.00;67148.00;5005115;28;20094;-87
2022/05/21 08:05:36;;;;;;;14.48;9.73;;;;;;;-150.07;100.00;67148.00;4999258;28;20061;-85
2022/05/21 08:08:07;;;;;;;9.73;8.82;;;;;;;-150.07;100.00;67148.00;5015732;28;20037;-84
2022/05/21 08:10:39;;;;;;;11.95;10.25;;;;;;;-150.07;100.00;67148.00;5017977;28;20437;-88
2022/05/21 08:13:06;;;;;;;12.55;10.50;;;;;;;-150.07;100.00;67148.00;5019901;28;20080;-89
2022/05/21 08:15:34;;;;;;;15.85;10.95;;;;;;;-150.07;100.00;67148.00;5020340;28;20482;-88
2022/05/21 08:18:04;;;;;;;14.13;11.70;;;;;;;-150.07;100.00;67148.00;5012028;28;20034;-87
2022/05/21 08:20:33;;;;;;;12.43;11.23;;;;;;;-150.07;100.00;67148.00;5010230;28;20042;-88
2022/05/21 08:28:32;;;;;;;12.75;11.45;;;;;;;-150.07;100.00;67148.00;5018638;28;20086;-85
2022/05/21 08:31:00;;;;;;;16.25;11.60;;;;;;;-150.07;100.00;67148.00;5018774;28;20037;-88
2022/05/21 08:33:28;;;;;;;15.95;11.10;;;;;;;-150.07;100.00;67148.00;5015702;28;20026;-87
2022/05/21 08:35:55;;;;;;;18.42;14.23;;;;;;;-150.07;100.00;67148.00;5015450;28;20045;-88
2022/05/21 08:38:22;;;;;;;14.38;12.40;;;;;;;-150.07;100.00;67148.00;5017905;28;20042;-87
2022/05/21 08:41:03;;;;;;;16.30;13.68;;;;;;;-150.07;100.00;67148.00;5019713;28;20479;-88
2022/05/21 08:43:48;;;;;;;13.43;12.05;;;;;;;-150.07;100.00;67148.00;5018540;28;20025;-89
2022/05/21 08:46:40;;;;;;;14.55;13.15;;;;;;;-150.07;100.00;67148.00;5017874;28;20029;-87
2022/05/21 08:49:33;;;;;;;16.35;12.82;;;;;;;-150.07;100.00;67148.00;5015230;28;20080;-86
2022/05/21 08:52:44;;;;;;;18.25;11.68;;;;;;;-150.07;100.00;67148.00;5015574;28;20053;-88
2022/05/21 08:55:16;;;;;;;14.90;13.23;;;;;;;-150.07;100.00;67148.00;4999502;28;20079;-88
2022/05/21 08:57:51;;;;;;;14.30;12.85;;;;;;;-150.07;100.00;67148.00;5015138;28;20467;-87
2022/05/21 09:00:25;;;;;;;16.02;14.13;;;;;;;-150.07;100.00;67148.00;5016502;28;20125;-88
2022/05/21 09:02:54;;;;;;;17.35;13.43;;;;;;;-150.07;100.00;67148.00;5016292;28;20034;-85
2022/05/21 09:05:24;;;;;;;21.47;15.83;;;;;;;-150.07;100.00;67148.00;5013213;28;20025;-87
2022/05/21 09:08:03;;;;;;;20.73;15.65;;;;;;;-150.07;100.00;67148.00;4996041;28;20022;-83
2022/05/21 09:11:17;;;;;;;19.92;15.18;;;;;;;-150.07;100.00;67148.00;4995868;28;20105;-86
2022/05/21 09:14:07;;;;;;;20.33;13.57;;;;;;;-150.07;100.00;67148.00;4989444;28;20050;-79
2022/05/21 09:16:54;;;;;;;18.45;12.45;;;;;;;-150.07;100.00;67148.00;4995154;28;20022;-84
2022/05/21 09:19:34;;;;;;;16.92;14.23;;;;;;;-150.07;100.00;67148.00;4997562;28;20411;-87
2022/05/21 09:22:07;;;;;;;20.10;15.75;;;;;;;-150.07;100.00;67148.00;5008799;28;20034;-86
2022/05/21 09:24:46;;;;;;;17.70;13.40;;;;;;;-150.07;100.00;67148.00;5010870;28;20526;-87
2022/05/21 09:27:31;;;;;;;19.38;14.57;;;;;;;-150.07;100.00;67148.00;5017046;28;20028;-88
2022/05/21 09:30:14;;;;;;;16.75;14.93;;;;;;;-150.07;100.00;67148.00;5014109;28;20036;-87
2022/05/21 09:32:43;;;;;;;14.05;12.57;;;;;;;-150.07;100.00;67148.00;5021985;28;20044;-88
2022/05/21 09:35:19;;;;;;;17.55;15.55;;;;;;;-150.07;100.00;67148.00;5015001;28;20538;-90
2022/05/21 09:37:46;;;;;;;15.90;14.27;;;;;;;-150.07;100.00;67148.00;5014623;28;20017;-88
2022/05/21 09:40:30;;;;;;;15.07;12.27;;;;;;;-150.07;100.00;67148.00;5017299;28;20038;-89
2022/05/21 09:45:44;;;;;;;16.77;14.02;;;;;;;-150.07;100.00;67148.00;5009936;28;20543;-86
2022/05/21 09:48:11;;;;;;;14.57;12.75;;;;;;;-150.07;100.00;67148.00;5016119;28;20570;-89
2022/05/21 09:51:00;;;;;;;16.70;12.88;;;;;;;-150.07;100.00;67148.00;5015538;28;20117;-88
2022/05/21 09:53:27;;;;;;;12.93;11.43;;;;;;;-150.07;100.00;67148.00;5005712;28;20030;-87
2022/05/21 09:55:58;;;;;;;18.13;12.95;;;;;;;-150.07;100.00;67148.00;5014196;28;20072;-88
2022/05/21 09:58:25;;;;;;;14.32;11.82;;;;;;;-150.07;100.00;67148.00;5013787;28;20031;-89
2022/05/21 10:01:01;;;;;;;13.73;12.40;;;;;;;-150.07;100.00;67148.00;5013258;28;20026;-88
2022/05/21 10:03:51;;;;;;;13.32;11.57;;;;;;;-150.07;100.00;67148.00;5021000;28;20037;-85
2022/05/21 10:06:43;;;;;;;14.90;12.95;;;;;;;-150.07;100.00;67148.00;5018295;28;20030;-84
2022/05/21 10:12:35;;;;;;;14.95;13.30;;;;;;;-150.07;100.00;67148.00;5004494;28;20049;-82
2022/05/21 10:15:22;;;;;;;17.48;14.85;;;;;;;-150.07;100.00;67148.00;5005658;28;20026;-85
2022/05/21 10:18:21;;;;;;;14.13;12.63;;;;;;;-150.07;100.00;67148.00;5011923;28;20394;-81
2022/05/21 10:20:54;;;;;;;18.60;12.75;;;;;;;-150.07;100.00;67148.00;5018250;28;20046;-86
2022/05/21 10:23:55;;;;;;;16.80;13.88;;;;;;;-150.07;100.00;67148.00;5010371;28;20084;-78
2022/05/21 10:26:31;;;;;;;14.80;13.10;;;;;;;-150.07;100.00;67148.00;5011247;28;20033;-77
2022/05/21 10:29:25;;;;;;;13.88;12.57;;;;;;;-150.07;100.00;67148.00;5011011;28;20041;-77
2022/05/21 10:32:30;;;;;;;24.58;17.25;;;;;;;-150.07;100.00;67148.00;5010601;28;20029;-78
2022/05/21 10:35:34;;;;;;;18.73;15.95;;;;;;;-150.07;100.00;67148.00;4998815;28;20097;-78
2022/05/21 10:38:51;;;;;;;14.45;11.63;;;;;;;-150.07;100.00;67148.00;5005392;28;20538;-85
2022/05/21 10:41:50;;;;;;;14.52;12.55;;;;;;;-150.07;100.00;67148.00;5015986;28;20046;-79
2022/05/21 10:44:33;;;;;;;18.13;13.32;;;;;;;-150.07;100.00;67148.00;5009929;28;20069;-78
2022/05/21 10:47:22;;;;;;;20.05;15.63;;;;;;;-150.07;100.00;67148.00;5005909;28;20451;-78
2022/05/21 10:50:30;;;;;;;18.48;15.50;;;;;;;-150.07;100.00;67148.00;5007858;28;20154;-85
2022/05/21 10:53:25;;;;;;;18.83;15.68;;;;;;;-150.07;100.00;67148.00;5020851;28;20529;-78
2022/05/21 10:56:10;;;;;;;16.75;14.15;;;;;;;-150.07;100.00;67148.00;5026841;28;20037;-78
2022/05/21 10:58:55;;;;;;;22.75;13.20;;;;;;;-150.07;100.00;67148.00;5009486;28;20486;-79
2022/05/21 11:01:34;;;;;;;14.98;13.45;;;;;;;-150.07;100.00;67148.00;5011260;28;20391;-79
2022/05/21 11:04:29;;;;;;;19.30;14.25;;;;;;;-150.07;100.00;67148.00;5021099;28;20041;-80
2022/05/21 11:07:12;;;;;;;19.55;14.23;;;;;;;-150.07;100.00;67148.00;4995086;28;20057;-84
2022/05/21 11:09:42;;;;;;;17.08;15.38;;;;;;;-150.07;100.00;67148.00;5009323;28;20434;-78
2022/05/21 11:12:19;;;;;;;20.67;13.65;;;;;;;-150.07;100.00;67148.00;5009369;28;20544;-80
2022/05/21 11:15:09;;;;;;;16.20;14.07;;;;;;;-150.07;100.00;67148.00;5011313;28;20033;-86
2022/05/21 11:17:53;;;;;;;25.02;15.82;;;;;;;-150.07;100.00;67148.00;5003358;28;20057;-78
2022/05/21 11:20:22;;;;;;;18.40;15.27;;;;;;;-150.07;100.00;67148.00;5007139;28;20129;-82
2022/05/21 11:23:19;;;;;;;19.98;16.02;;;;;;;-150.07;100.00;67148.00;4996160;28;20033;-79
2022/05/21 11:25:58;;;;;;;22.85;14.55;;;;;;;-150.07;100.00;67148.00;5010176;28;20018;-80
2022/05/21 11:28:36;;;;;;;15.45;12.80;;;;;;;-150.07;100.00;67148.00;5009952;28;20029;-80
2022/05/21 11:39:46;;;;;;;21.52;14.90;;;;;;;-150.07;100.00;67148.00;5009519;28;20104;-77
2022/05/21 11:42:24;;;;;;;19.35;16.10;;;;;;;-150.07;100.00;67148.00;5013375;28;20091;-77
2022/05/21 11:45:04;;;;;;;21.83;15.55;;;;;;;-150.07;100.00;67148.00;5011426;28;20046;-77
2022/05/21 11:47:41;;;;;;;24.77;17.38;;;;;;;-150.07;100.00;67148.00;5000626;28;20046;-77
2022/05/21 11:50:22;;;;;;;25.85;17.25;;;;;;;-150.07;100.00;67148.00;5003056;28;20128;-77
2022/05/21 11:53:05;;;;;;;18.17;16.00;;;;;;;-150.07;100.00;67148.00;5010809;28;20074;-77